Portland, Oregon
Current Conditions -  °F | °C
As of 10:53 AM on Tuesday 21 Oct 2014 (Local Time) from KPDX Reporting Station
Overcast Overcast  
Wind Chill: 14°   Ceiling: 8500
Heat Index: 14°   Visibility: 10mi
Dew Point: 11°   Wind: 12mph
Humidity: 81%   Direction: 190°S
Pressure: 30.01"   Gusts: NA
Location:  45.51°N, 122.67°W
Report Text: KPDX 211753Z 19010KT 10SM FEW020 SCT045 OVC085 14/11 A3001 RMK AO2 SLP159 60000 T01390106 10139 20122 53013
Loading
Personal Weather Stations






























Interactive Weather Map
Tropical Storm Tracking
New forecast layout! Learn more

10-Day Weather Forecast

Advertisements
Track Severe Weather on mobile